Time;durP1;ratioP1;P1;durP2;ratioP2;P2;SDS_P1;SDS_P2;PMS_P1;PMS_P2;Temp;Humidity;BMP_temperature;BMP_pressure;BME280_temperature;BME280_humidity;BME280_pressure;Samples;Min_cycle;Max_cycle;Signal;HPM_P1;HPM_P2
2022/01/26 00:06:26;;;;;;;38.38;12.02;;;;;;;2.26;77.67;101883.97;5093168;28;20039;-75
2022/01/26 00:08:51;;;;;;;45.35;13.70;;;;;;;2.21;77.27;101891.44;5091963;28;20033;-75
2022/01/26 00:11:16;;;;;;;36.90;12.03;;;;;;;2.35;77.36;101893.88;5092920;28;20032;-75
2022/01/26 00:13:42;;;;;;;41.55;13.90;;;;;;;2.27;77.49;101888.31;5093158;28;20250;-74
2022/01/26 00:16:14;;;;;;;42.17;12.73;;;;;;;2.24;77.47;101895.66;5092732;28;20028;-74
2022/01/26 00:18:40;;;;;;;37.03;13.38;;;;;;;2.15;77.22;101885.72;5093978;28;20031;-74
2022/01/26 00:21:12;;;;;;;38.53;12.30;;;;;;;2.11;77.72;101894.91;5097059;28;20032;-74
2022/01/26 00:26:34;;;;;;;34.03;12.10;;;;;;;2.01;77.90;101902.69;5096906;28;20450;-74
2022/01/26 00:29:11;;;;;;;37.50;10.48;;;;;;;1.98;78.36;101895.78;5096799;28;20031;-74
2022/01/26 00:40:15;;;;;;;35.08;10.77;;;;;;;2.25;78.11;101889.38;5096683;28;20542;-74
2022/01/26 00:42:42;;;;;;;36.75;12.80;;;;;;;2.15;77.55;101899.84;5096251;28;20024;-74
2022/01/26 00:45:09;;;;;;;38.00;12.07;;;;;;;2.09;77.55;101897.66;5096604;28;20021;-74
2022/01/26 00:47:35;;;;;;;34.25;12.68;;;;;;;1.99;77.16;101896.63;5096393;28;20060;-74
2022/01/26 00:50:02;;;;;;;;;;;;;;;1.97;78.44;101890.63;5096912;28;20036;-74
2022/01/26 00:52:42;;;;;;;;;;;;;;;2.05;77.61;101893.53;5096789;28;19931;-74
2022/01/26 00:55:16;;;;;;;34.30;11.18;;;;;;;2.19;77.32;101884.53;5096261;28;19912;-75
2022/01/26 00:57:43;;;;;;;39.70;11.07;;;;;;;2.19;77.47;101880.03;5094782;28;20113;-74
2022/01/26 01:00:13;;;;;;;46.92;13.80;;;;;;;2.16;76.71;101885.59;5096228;28;20032;-75
2022/01/26 01:02:38;;;;;;;39.05;12.85;;;;;;;2.17;76.82;101866.03;5096072;28;20062;-75
2022/01/26 01:05:12;;;;;;;43.95;12.48;;;;;;;2.18;76.97;101869.53;5095869;28;20056;-75
2022/01/26 01:07:40;;;;;;;30.90;11.68;;;;;;;2.14;76.61;101863.63;5095877;28;20082;-75
2022/01/26 01:10:06;;;;;;;35.60;12.73;;;;;;;2.11;76.47;101873.63;5096071;28;20478;-74
2022/01/26 01:12:38;;;;;;;;;;;;;;;2.05;76.79;101874.91;5095198;28;20398;-75
2022/01/26 01:15:04;;;;;;;41.70;12.07;;;;;;;2.02;77.08;101877.81;5095721;28;19908;-75
2022/01/26 01:17:37;;;;;;;;;;;;;;;2.02;77.18;101885.78;5095985;28;20046;-75
2022/01/26 01:30:37;;;;;;;35.65;12.23;;;;;;;1.88;77.25;101878.00;5095322;28;20406;-74
2022/01/26 01:33:10;;;;;;;35.05;12.35;;;;;;;1.89;77.27;101893.81;5095401;28;20455;-74
2022/01/26 01:35:40;;;;;;;37.08;13.45;;;;;;;1.91;77.29;101888.41;5095256;28;20028;-74
2022/01/26 01:38:11;;;;;;;41.10;13.13;;;;;;;1.87;77.42;101885.13;5095274;28;20477;-75
2022/01/26 01:40:39;;;;;;;40.88;14.65;;;;;;;1.87;77.31;101882.44;5095415;28;20020;-75
2022/01/26 01:43:05;;;;;;;37.78;13.57;;;;;;;1.81;77.19;101882.03;5095384;28;20036;-75
2022/01/26 01:45:34;;;;;;;;;;;;;;;1.76;77.60;101885.06;5095528;28;20034;-75
2022/01/26 01:47:59;;;;;;;39.70;12.30;;;;;;;1.85;77.66;101875.53;5095317;28;19908;-74
2022/01/26 01:50:25;;;;;;;40.08;12.43;;;;;;;1.80;77.36;101875.88;5095344;28;20393;-74
2022/01/26 01:52:51;;;;;;;43.72;12.50;;;;;;;1.79;77.54;101878.69;5095237;28;20462;-74
2022/01/26 01:55:16;;;;;;;42.50;12.25;;;;;;;1.78;77.72;101879.63;5093933;28;20024;-74
2022/01/26 01:57:41;;;;;;;45.67;12.25;;;;;;;1.73;77.68;101869.34;5094946;28;20375;-75
2022/01/26 02:00:10;;;;;;;44.30;14.40;;;;;;;1.73;78.17;101864.03;5095223;28;20067;-74
2022/01/26 02:02:36;;;;;;;37.80;12.88;;;;;;;1.73;78.13;101864.88;5095006;28;20151;-74
2022/01/26 02:05:03;;;;;;;41.92;12.15;;;;;;;1.75;78.05;101872.72;5093759;28;20057;-74
2022/01/26 02:07:28;;;;;;;45.15;13.88;;;;;;;1.72;78.39;101875.63;5095189;28;20081;-74
2022/01/26 02:09:53;;;;;;;43.70;12.87;;;;;;;1.70;78.29;101870.41;5094771;28;20028;-74
2022/01/26 02:12:20;;;;;;;34.23;11.40;;;;;;;1.69;78.19;101865.19;5094972;28;20286;-74
2022/01/26 02:14:51;;;;;;;39.90;13.25;;;;;;;1.70;78.58;101870.41;5093493;28;20050;-75
2022/01/26 02:55:42;;;;;;;39.55;12.52;;;;;;;1.65;78.37;101834.50;5094094;28;20111;-74
2022/01/26 03:03:34;;;;;;;42.08;13.90;;;;;;;1.52;78.04;101820.44;5093830;28;20032;-75
2022/01/26 03:06:05;;;;;;;51.13;13.35;;;;;;;1.52;78.65;101817.78;5093819;28;20397;-74
2022/01/26 03:08:38;;;;;;;44.15;14.82;;;;;;;1.52;78.50;101815.13;5093595;28;20477;-74
2022/01/26 03:11:10;;;;;;;43.25;13.30;;;;;;;1.54;78.23;101806.06;5092490;28;20477;-74
2022/01/26 03:13:40;;;;;;;45.65;14.25;;;;;;;1.51;78.55;101800.97;5093465;28;20106;-74
2022/01/26 03:16:11;;;;;;;45.88;14.85;;;;;;;1.53;78.30;101793.75;5093523;28;20054;-74
2022/01/26 03:21:38;;;;;;;46.28;14.68;;;;;;;1.58;78.34;101804.91;5093472;28;20035;-75
2022/01/26 03:34:29;;;;;;;59.10;16.58;;;;;;;1.52;78.28;101784.09;5093480;28;20028;-74
2022/01/26 03:36:58;;;;;;;54.05;17.63;;;;;;;1.46;78.33;101776.56;5092132;28;20043;-74
2022/01/26 03:39:25;;;;;;;57.05;17.00;;;;;;;1.47;78.37;101775.59;5094281;28;20028;-75
2022/01/26 03:42:02;;;;;;;69.72;17.75;;;;;;;1.34;78.52;101780.13;5094133;28;20020;-74
2022/01/26 03:44:27;;;;;;;65.60;17.23;;;;;;;1.54;77.88;101787.47;5092112;28;20035;-74
2022/01/26 03:46:53;;;;;;;65.65;18.50;;;;;;;1.59;77.94;101790.66;5093453;28;20075;-75
2022/01/26 03:49:18;;;;;;;61.20;18.13;;;;;;;1.65;78.03;101784.88;5093086;28;20059;-74
2022/01/26 03:51:44;;;;;;;60.70;19.30;;;;;;;1.70;77.50;101788.03;5093253;28;20040;-75
2022/01/26 03:54:11;;;;;;;59.30;18.65;;;;;;;1.68;77.37;101786.44;5093873;28;20039;-75
2022/01/26 03:56:36;;;;;;;60.40;18.65;;;;;;;1.62;77.34;101784.25;5097381;28;20520;-75
2022/01/26 03:59:03;;;;;;;67.85;19.65;;;;;;;1.59;77.43;101788.00;5097735;28;20051;-75
2022/01/26 04:01:28;;;;;;;59.50;18.00;;;;;;;1.58;77.84;101785.44;5097657;28;20036;-75
2022/01/26 04:03:54;;;;;;;54.70;16.88;;;;;;;1.55;78.35;101788.34;5096010;28;20383;-75
2022/01/26 04:06:19;;;;;;;59.17;16.40;;;;;;;1.57;79.01;101792.56;5096991;28;20039;-74
2022/01/26 04:08:45;;;;;;;64.95;19.30;;;;;;;1.59;78.97;101800.44;5097366;28;20047;-74
2022/01/26 04:14:00;;;;;;;54.72;18.55;;;;;;;1.69;78.46;101804.94;5096947;28;20074;-74
2022/01/26 04:16:26;;;;;;;57.65;18.33;;;;;;;1.71;78.47;101803.03;5096941;28;20036;-74
2022/01/26 04:18:54;;;;;;;57.72;17.30;;;;;;;1.72;78.83;101796.75;5097382;28;20511;-75
2022/01/26 04:24:53;;;;;;;60.22;18.15;;;;;;;1.72;77.62;101809.19;5096670;28;20468;-74
2022/01/26 04:27:06;;;;;;;57.55;16.08;;;;;;;1.81;78.21;101813.78;5082907;28;20052;-74
2022/01/26 04:29:33;;;;;;;65.43;19.13;;;;;;;1.84;77.54;101818.88;5096956;28;20035;-74
2022/01/26 04:32:01;;;;;;;64.05;16.83;;;;;;;1.83;77.68;101811.03;5095462;28;20115;-74
2022/01/26 04:34:28;;;;;;;74.30;18.90;;;;;;;1.80;77.66;101809.44;5096891;28;20028;-74
2022/01/26 04:39:46;;;;;;;62.10;19.05;;;;;;;1.77;76.78;101803.53;5096794;28;20035;-74
2022/01/26 04:42:20;;;;;;;61.75;19.52;;;;;;;1.76;77.14;101805.34;5095688;28;20406;-74
2022/01/26 04:44:53;;;;;;;69.80;22.20;;;;;;;1.75;77.15;101798.34;5096669;28;20032;-74
2022/01/26 04:47:19;;;;;;;58.75;18.00;;;;;;;1.77;77.21;101801.72;5096320;28;20028;-75
2022/01/26 04:49:44;;;;;;;69.45;18.60;;;;;;;1.80;77.23;101803.28;5095269;28;20026;-75
2022/01/26 04:52:10;;;;;;;74.90;20.67;;;;;;;1.84;77.27;101804.75;5096498;28;20036;-75
2022/01/26 04:54:35;;;;;;;64.88;21.40;;;;;;;1.85;77.15;101811.75;5095289;28;20363;-75
2022/01/26 04:57:00;;;;;;;68.28;18.58;;;;;;;1.85;77.38;101798.47;5096228;28;20028;-75
2022/01/26 04:59:26;;;;;;;61.83;19.40;;;;;;;1.82;76.93;101796.88;5096528;28;20056;-75
2022/01/26 05:01:51;;;;;;;71.67;20.20;;;;;;;1.81;77.19;101799.66;5094934;28;20268;-77
2022/01/26 05:04:16;;;;;;;61.73;18.70;;;;;;;1.69;77.74;101806.75;5095567;28;20549;-75
2022/01/26 05:06:42;;;;;;;66.47;20.20;;;;;;;1.81;77.07;101807.63;5096203;28;20352;-75
2022/01/26 05:09:07;;;;;;;65.43;19.10;;;;;;;1.76;77.31;101808.00;5096126;28;20310;-75
2022/01/26 05:11:36;;;;;;;75.33;22.37;;;;;;;1.82;77.34;101809.34;5094760;28;20028;-75
2022/01/26 05:14:02;;;;;;;81.50;20.13;;;;;;;1.85;77.61;101817.06;5095844;28;20250;-75
2022/01/26 05:16:28;;;;;;;62.45;19.80;;;;;;;1.80;77.64;101844.00;5095794;28;20093;-75
2022/01/26 05:18:55;;;;;;;68.25;20.27;;;;;;;1.94;76.98;101832.34;5094686;28;20040;-75
2022/01/26 05:21:21;;;;;;;61.83;18.58;;;;;;;1.80;77.42;101837.81;5096002;28;20078;-75
2022/01/26 05:23:47;;;;;;;68.82;18.70;;;;;;;1.81;77.16;101834.22;5094553;28;20078;-75
2022/01/26 05:26:13;;;;;;;72.78;21.23;;;;;;;1.85;77.85;101836.53;5095484;28;20020;-75
2022/01/26 05:28:39;;;;;;;61.10;18.73;;;;;;;1.84;77.30;101832.19;5095425;28;20028;-75
2022/01/26 05:31:04;;;;;;;;;;;;;;;1.87;77.77;101823.13;5096157;28;20447;-75
2022/01/26 05:33:30;;;;;;;65.97;19.23;;;;;;;1.88;78.11;101823.03;5095572;28;19908;-75
2022/01/26 05:35:55;;;;;;;63.33;17.58;;;;;;;1.78;77.90;101832.66;5094504;28;20484;-75
2022/01/26 05:38:20;;;;;;;64.00;18.33;;;;;;;1.76;77.30;101833.72;5095783;28;20461;-76
2022/01/26 05:40:46;;;;;;;67.97;18.10;;;;;;;1.83;78.19;101827.81;5095629;28;20383;-75
2022/01/26 05:43:12;;;;;;;69.82;17.02;;;;;;;1.84;77.76;101813.56;5095190;28;20024;-75
2022/01/26 05:45:39;;;;;;;67.25;18.85;;;;;;;1.90;77.56;101822.91;5076933;28;20146;-75
2022/01/26 05:48:09;;;;;;;73.60;18.20;;;;;;;1.73;76.80;101825.00;5094976;28;20038;-75
2022/01/26 05:50:37;;;;;;;69.20;18.95;;;;;;;1.97;76.75;101819.66;5095556;28;20428;-75
2022/01/26 05:53:03;;;;;;;72.05;20.42;;;;;;;1.72;76.89;101815.34;5095089;28;20454;-75
2022/01/26 05:55:28;;;;;;;68.47;18.27;;;;;;;1.79;77.23;101809.59;5095140;28;20030;-75
2022/01/26 05:57:54;;;;;;;51.65;17.63;;;;;;;1.67;77.33;101800.69;5095314;28;20421;-76
2022/01/26 06:00:19;;;;;;;71.60;19.13;;;;;;;1.54;77.80;101792.78;5093386;28;20051;-75
2022/01/26 06:02:45;;;;;;;60.22;16.52;;;;;;;1.43;78.42;101784.78;5094768;28;20063;-75
2022/01/26 06:05:11;;;;;;;60.95;17.58;;;;;;;1.36;78.45;101788.84;5096415;28;20036;-75
2022/01/26 06:07:36;;;;;;;60.17;19.25;;;;;;;1.38;78.70;101774.50;5095322;28;20036;-75
2022/01/26 06:10:02;;;;;;;59.90;18.13;;;;;;;1.37;78.32;101769.28;5094777;28;20036;-76
2022/01/26 06:12:29;;;;;;;;;;;;;;;1.34;78.70;101769.50;5095375;28;20107;-76
2022/01/26 06:14:55;;;;;;;56.58;17.17;;;;;;;1.36;78.34;101791.50;5094893;28;20007;-75
2022/01/26 06:17:20;;;;;;;55.40;19.75;;;;;;;1.46;78.45;101796.97;5094216;28;20108;-75
2022/01/26 06:19:46;;;;;;;71.35;18.08;;;;;;;1.47;78.13;101790.69;5093160;28;20035;-76
2022/01/26 06:22:11;;;;;;;63.00;17.40;;;;;;;1.43;78.47;101798.06;5093401;28;20039;-76
2022/01/26 06:24:36;;;;;;;56.70;15.77;;;;;;;1.46;78.46;101796.97;5093371;28;20032;-76
2022/01/26 06:27:02;;;;;;;57.83;16.83;;;;;;;1.49;78.44;101796.75;5094469;28;20036;-75
2022/01/26 06:29:28;;;;;;;55.70;16.95;;;;;;;1.51;78.36;101800.97;5094313;28;20028;-76
2022/01/26 06:31:53;;;;;;;63.80;18.65;;;;;;;1.50;77.97;101809.91;5094826;28;20032;-76
2022/01/26 06:34:20;;;;;;;57.93;18.13;;;;;;;1.44;78.34;101809.50;5094241;28;20082;-75
2022/01/26 06:36:45;;;;;;;58.97;17.67;;;;;;;1.59;78.09;101813.72;5094458;28;20258;-76
2022/01/26 06:39:12;;;;;;;60.72;15.63;;;;;;;1.53;77.78;101809.69;5094219;28;20100;-75
2022/01/26 06:41:38;;;;;;;55.53;17.52;;;;;;;1.57;78.13;101824.44;5094348;28;20036;-76
2022/01/26 06:44:16;;;;;;;57.25;15.77;;;;;;;1.69;78.01;101818.22;5093205;28;20035;-75
2022/01/26 06:51:49;;;;;;;60.95;18.40;;;;;;;1.46;77.83;101792.50;5094365;28;20028;-76
2022/01/26 06:54:18;;;;;;;61.47;17.33;;;;;;;1.40;78.12;101795.63;5094874;28;20032;-76
2022/01/26 06:56:45;;;;;;;66.00;18.58;;;;;;;1.33;78.63;101775.78;5093523;28;20089;-75
2022/01/26 06:59:11;;;;;;;72.57;20.45;;;;;;;1.30;78.72;101776.84;5093163;28;20109;-75
2022/01/26 07:01:37;;;;;;;57.75;16.40;;;;;;;1.31;79.53;101789.16;5093220;28;20440;-77
2022/01/26 07:04:02;;;;;;;47.65;14.15;;;;;;;1.27;79.10;101787.69;5093274;28;20028;-76
2022/01/26 07:06:29;;;;;;;56.78;16.88;;;;;;;1.27;79.30;101793.00;5094173;28;20105;-75
2022/01/26 07:08:54;;;;;;;56.08;15.93;;;;;;;1.31;79.14;101801.59;5094133;28;20028;-75
2022/01/26 07:11:19;;;;;;;62.97;18.27;;;;;;;1.28;79.28;101820.41;5093939;28;20390;-75
2022/01/26 07:13:45;;;;;;;61.33;15.43;;;;;;;1.45;79.52;101814.72;5094565;28;20119;-76
2022/01/26 07:21:39;;;;;;;71.60;16.35;;;;;;;2.16;77.59;101808.47;5093941;28;20130;-75
2022/01/26 07:24:04;;;;;;;70.15;18.98;;;;;;;2.00;77.61;101803.47;5094082;28;20486;-75
2022/01/26 07:26:30;;;;;;;59.20;18.25;;;;;;;2.01;78.42;101809.66;5093380;28;20032;-75
2022/01/26 07:29:06;;;;;;;61.80;17.10;;;;;;;1.81;76.44;101791.69;5093732;28;20445;-75
2022/01/26 07:31:33;;;;;;;59.55;16.38;;;;;;;1.79;77.24;101793.63;5093728;28;20071;-75
2022/01/26 07:33:59;;;;;;;52.42;16.60;;;;;;;1.66;78.35;101799.84;5093748;28;20115;-75
2022/01/26 07:36:25;;;;;;;59.95;17.23;;;;;;;1.58;77.15;101807.56;5092632;28;20114;-76
2022/01/26 07:38:54;;;;;;;69.25;17.75;;;;;;;1.42;77.55;101798.16;5094011;28;20411;-75
2022/01/26 07:41:19;;;;;;;62.25;18.00;;;;;;;1.35;78.49;101785.34;5093658;28;20028;-75
2022/01/26 07:43:45;;;;;;;62.40;16.98;;;;;;;1.41;78.68;101792.00;5093371;28;20107;-76
2022/01/26 07:46:11;;;;;;;62.42;19.90;;;;;;;1.44;78.13;101789.09;5093789;28;20123;-75
2022/01/26 07:48:37;;;;;;;71.97;19.48;;;;;;;1.48;77.95;101800.34;5092505;28;20024;-75
2022/01/26 07:51:03;;;;;;;64.70;15.27;;;;;;;1.62;77.97;101816.13;5093349;28;20110;-75
2022/01/26 07:53:28;;;;;;;58.67;15.70;;;;;;;1.78;77.44;101826.50;5093615;28;20571;-75
2022/01/26 07:55:56;;;;;;;60.95;17.90;;;;;;;1.76;77.76;101826.59;5092687;28;20031;-76
2022/01/26 07:58:21;;;;;;;62.40;17.23;;;;;;;1.68;77.90;101816.53;5093334;28;20402;-76
2022/01/26 08:00:47;;;;;;;61.45;15.95;;;;;;;1.59;77.95;101795.13;5093191;28;20039;-75
2022/01/26 08:03:24;;;;;;;61.63;16.70;;;;;;;1.49;78.68;101779.00;5093380;28;20040;-76
2022/01/26 08:05:50;;;;;;;58.90;16.65;;;;;;;1.51;79.33;101794.81;5093391;28;20028;-77
2022/01/26 08:08:15;;;;;;;53.90;16.23;;;;;;;1.46;79.59;101796.97;5092826;28;20474;-76
2022/01/26 08:10:41;;;;;;;51.35;15.95;;;;;;;1.37;79.56;101795.84;5092546;28;20039;-77
2022/01/26 08:13:06;;;;;;;55.50;17.45;;;;;;;1.33;79.92;101783.75;5092717;28;20079;-76
2022/01/26 08:15:32;;;;;;;61.33;16.37;;;;;;;1.33;79.70;101789.06;5092619;28;20044;-76
2022/01/26 08:17:59;;;;;;;62.57;16.77;;;;;;;1.21;80.40;101804.06;5092181;28;20273;-75
2022/01/26 08:20:24;;;;;;;57.38;17.42;;;;;;;1.20;80.27;101817.47;5092136;28;20604;-75
2022/01/26 08:22:52;;;;;;;62.50;16.88;;;;;;;1.20;80.38;101817.47;5092093;28;20024;-75
2022/01/26 08:25:18;;;;;;;59.80;15.70;;;;;;;1.21;79.66;101829.78;5092502;28;20028;-75
2022/01/26 08:27:48;;;;;;;65.72;17.15;;;;;;;1.09;80.50;101834.13;5092127;28;20438;-75
2022/01/26 08:30:17;;;;;;;63.72;14.60;;;;;;;1.06;81.19;101820.25;5092595;28;20079;-75
2022/01/26 08:32:43;;;;;;;57.90;16.02;;;;;;;1.10;81.14;101813.75;5092739;28;20038;-75
2022/01/26 08:35:09;;;;;;;;;;;;;;;1.15;80.82;101816.94;5092997;28;20035;-75
2022/01/26 08:37:34;;;;;;;57.55;15.20;;;;;;;1.16;80.49;101829.25;5091343;28;19908;-75
2022/01/26 08:40:00;;;;;;;62.80;17.00;;;;;;;1.18;80.78;101840.63;5093622;28;20456;-75
2022/01/26 08:42:25;;;;;;;59.13;17.65;;;;;;;1.23;80.72;101854.41;5095906;28;20043;-75
2022/01/26 08:44:52;;;;;;;68.40;15.75;;;;;;;1.28;80.17;101853.09;5096230;28;20032;-74
2022/01/26 08:47:18;;;;;;;62.95;16.55;;;;;;;1.21;80.24;101851.03;5096418;28;20370;-75
2022/01/26 08:49:43;;;;;;;62.90;16.27;;;;;;;1.25;80.90;101844.53;5095755;28;20036;-75
2022/01/26 08:52:08;;;;;;;53.65;16.08;;;;;;;1.33;81.26;101831.53;5095131;28;20032;-77
2022/01/26 08:54:34;;;;;;;55.38;14.18;;;;;;;1.29;80.83;101835.38;5095974;28;20039;-75
2022/01/26 08:56:59;;;;;;;57.95;17.15;;;;;;;1.34;80.09;101828.78;5095987;28;20510;-75
2022/01/26 08:59:25;;;;;;;66.65;14.98;;;;;;;1.24;80.79;101853.47;5096047;28;20367;-75
2022/01/26 09:01:50;;;;;;;60.20;16.50;;;;;;;1.27;80.36;101856.72;5096249;28;20390;-75
2022/01/26 09:04:16;;;;;;;54.72;16.70;;;;;;;1.32;80.90;101853.75;5095598;28;20474;-75
2022/01/26 09:06:53;;;;;;;56.95;15.65;;;;;;;1.50;80.30;101849.75;5095756;28;20028;-75
2022/01/26 09:09:21;;;;;;;67.88;16.40;;;;;;;1.83;79.66;101864.19;5095760;28;20119;-77
2022/01/26 09:11:48;;;;;;;73.10;19.20;;;;;;;1.72;79.20;101865.84;5094481;28;20460;-75
2022/01/26 09:14:18;;;;;;;66.05;17.30;;;;;;;1.70;79.27;101865.09;5094300;28;20073;-75
2022/01/26 09:16:46;;;;;;;63.33;16.70;;;;;;;1.74;79.52;101866.56;5095545;28;20176;-75
2022/01/26 09:19:28;;;;;;;66.80;17.48;;;;;;;1.80;79.21;101864.41;5094067;28;20066;-75
2022/01/26 09:22:14;;;;;;;58.35;15.57;;;;;;;1.82;79.69;101859.81;5095544;28;20036;-75
2022/01/26 09:24:43;;;;;;;65.78;15.48;;;;;;;1.60;79.79;101858.78;5095746;28;20028;-75
2022/01/26 09:27:12;;;;;;;59.88;16.88;;;;;;;1.48;80.81;101867.59;5095451;28;20032;-75
2022/01/26 09:29:38;;;;;;;61.65;15.25;;;;;;;1.44;81.58;101863.47;5095381;28;20134;-76
2022/01/26 09:32:06;;;;;;;58.90;14.77;;;;;;;1.39;81.52;101866.47;5094298;28;20056;-75
2022/01/26 09:34:35;;;;;;;67.78;17.88;;;;;;;1.43;81.86;101859.16;5095173;28;20028;-75
2022/01/26 09:37:01;;;;;;;66.13;17.63;;;;;;;1.37;82.28;101857.78;5095540;28;20035;-76
2022/01/26 09:39:26;;;;;;;;;;;;;;;1.31;82.98;101857.34;5095663;28;20064;-76
2022/01/26 09:41:52;;;;;;;67.68;17.05;;;;;;;1.30;83.64;101861.81;5095213;28;19935;-77
2022/01/26 09:44:18;;;;;;;69.85;16.88;;;;;;;1.27;84.17;101864.69;5093984;28;20096;-76
2022/01/26 09:46:44;;;;;;;;;;;;;;;1.21;84.34;101866.94;5096016;28;20451;-76
2022/01/26 09:49:10;;;;;;;64.55;16.13;;;;;;;1.14;84.80;101863.03;5095405;28;20074;-76
2022/01/26 09:51:43;;;;;;;63.88;17.85;;;;;;;1.10;85.41;101854.41;5092983;28;20043;-76
2022/01/26 09:54:15;;;;;;;87.82;21.92;;;;;;;1.10;85.64;101854.41;5094943;28;20040;-76
2022/01/26 09:56:46;;;;;;;70.50;16.90;;;;;;;1.12;86.16;101849.00;5094958;28;20477;-76
2022/01/26 09:59:13;;;;;;;77.28;18.67;;;;;;;1.12;86.46;101849.84;5095038;28;20079;-76
2022/01/26 10:01:49;;;;;;;78.03;18.45;;;;;;;1.14;86.42;101839.13;5094827;28;20459;-76
2022/01/26 10:04:27;;;;;;;90.07;19.33;;;;;;;1.06;86.50;101842.34;5093579;28;20386;-76
2022/01/26 10:07:14;;;;;;;79.88;19.80;;;;;;;1.07;87.59;101837.88;5093424;28;20397;-75
2022/01/26 10:10:02;;;;;;;64.13;18.17;;;;;;;1.02;87.52;101839.06;5095294;28;20064;-76
2022/01/26 10:15:28;;;;;;;82.43;20.73;;;;;;;1.10;87.92;101841.16;5094779;28;20390;-76
2022/01/26 10:18:04;;;;;;;82.82;19.15;;;;;;;1.08;87.67;101834.25;5093520;28;20028;-75
2022/01/26 10:20:49;;;;;;;69.55;19.38;;;;;;;1.09;87.77;101835.94;5093282;28;20393;-76
2022/01/26 10:23:19;;;;;;;77.03;20.08;;;;;;;1.14;88.60;101836.47;5093541;28;20374;-76
2022/01/26 10:25:47;;;;;;;81.30;18.98;;;;;;;1.12;88.37;101830.41;5094580;28;20200;-76
2022/01/26 10:28:15;;;;;;;67.78;17.67;;;;;;;1.13;88.08;101840.09;5094285;28;20028;-76
2022/01/26 10:30:47;;;;;;;66.47;18.48;;;;;;;1.17;88.00;101836.25;5094058;28;20030;-76
2022/01/26 10:33:15;;;;;;;75.15;19.65;;;;;;;1.19;88.20;101834.34;5094462;28;20036;-74
2022/01/26 10:35:40;;;;;;;78.90;18.10;;;;;;;1.20;88.32;101841.34;5093079;28;20032;-75
2022/01/26 10:38:06;;;;;;;71.30;19.27;;;;;;;1.24;88.36;101850.81;5094196;28;20044;-75
2022/01/26 10:40:32;;;;;;;71.88;19.13;;;;;;;1.26;88.12;101852.38;5094000;28;20335;-75
2022/01/26 10:43:14;;;;;;;72.55;21.73;;;;;;;1.25;87.84;101855.16;5094217;28;20024;-76
2022/01/26 10:46:06;;;;;;;69.63;16.80;;;;;;;1.30;88.11;101850.34;5093130;28;20363;-77
2022/01/26 10:53:46;;;;;;;71.97;19.98;;;;;;;1.42;88.03;101853.94;5094402;28;20028;-78
2022/01/26 10:56:12;;;;;;;95.40;25.58;;;;;;;1.44;87.92;101863.47;5094012;28;20043;-75
2022/01/26 10:58:47;;;;;;;68.88;18.90;;;;;;;1.45;87.61;101857.19;5094263;28;20051;-77
2022/01/26 11:01:12;;;;;;;73.90;21.45;;;;;;;1.46;87.84;101847.44;5092996;28;20052;-77
2022/01/26 11:03:46;;;;;;;78.97;19.15;;;;;;;1.46;87.85;101852.75;5093804;28;20067;-77
2022/01/26 11:06:17;;;;;;;74.82;18.85;;;;;;;1.51;87.84;101853.25;5093747;28;20036;-77
2022/01/26 11:08:43;;;;;;;82.85;20.67;;;;;;;1.48;88.03;101851.66;5093606;28;20028;-77
2022/01/26 11:11:22;;;;;;;90.30;21.98;;;;;;;1.48;88.11;101853.47;5093361;28;20106;-77
2022/01/26 11:13:47;;;;;;;75.90;18.33;;;;;;;1.49;88.32;101855.19;5093606;28;20343;-77
2022/01/26 11:16:14;;;;;;;80.40;22.27;;;;;;;1.56;88.39;101867.91;5092407;28;20031;-76
2022/01/26 11:18:53;;;;;;;69.40;19.08;;;;;;;1.59;87.98;101873.00;5093831;28;20061;-76
2022/01/26 11:21:31;;;;;;;66.50;16.83;;;;;;;1.65;87.57;101871.69;5093206;28;20057;-76
2022/01/26 11:24:23;;;;;;;73.18;21.70;;;;;;;1.62;87.47;101878.06;5091981;28;20416;-76
2022/01/26 11:27:01;;;;;;;79.97;18.35;;;;;;;1.59;87.56;101865.03;5089261;28;20040;-76
2022/01/26 11:29:33;;;;;;;67.03;18.05;;;;;;;1.65;87.82;101863.72;5093269;28;20390;-77
2022/01/26 11:32:29;;;;;;;80.00;19.25;;;;;;;1.60;87.76;101861.44;5093071;28;20021;-77
2022/01/26 11:34:55;;;;;;;73.20;18.58;;;;;;;1.63;87.67;101852.34;5093151;28;20028;-77
2022/01/26 11:37:38;;;;;;;;;;;;;;;1.60;87.71;101848.16;5092263;28;20029;-75
2022/01/26 11:45:20;;;;;;;79.90;18.60;;;;;;;1.61;87.97;101852.47;5093183;28;20039;-76
2022/01/26 11:47:59;;;;;;;57.08;15.52;;;;;;;1.62;88.40;101848.84;5093219;28;20034;-75
2022/01/26 11:50:26;;;;;;;62.17;15.80;;;;;;;1.62;88.27;101851.50;5093083;28;20356;-75
2022/01/26 11:53:09;;;;;;;61.65;15.30;;;;;;;1.63;87.97;101839.06;5093178;28;20024;-75
2022/01/26 11:55:42;;;;;;;54.92;15.93;;;;;;;1.62;88.44;101845.34;5093017;28;20098;-75
2022/01/26 11:58:09;;;;;;;78.68;17.27;;;;;;;1.62;88.03;101851.50;5092894;28;20055;-75
2022/01/26 12:00:42;;;;;;;63.78;15.07;;;;;;;1.56;88.93;101846.66;5093029;28;20348;-75
2022/01/26 12:03:20;;;;;;;62.05;17.40;;;;;;;1.68;88.54;101851.06;5092704;28;20107;-75
2022/01/26 12:05:46;;;;;;;64.55;16.30;;;;;;;1.64;88.70;101841.63;5093373;28;20032;-75
2022/01/26 12:08:12;;;;;;;70.38;19.38;;;;;;;1.64;88.65;101833.66;5092670;28;20141;-75
2022/01/26 12:10:38;;;;;;;67.90;17.70;;;;;;;1.61;88.54;101831.22;5093193;28;20032;-75
2022/01/26 12:13:12;;;;;;;;;;;;;;;1.62;88.20;101837.38;5092065;28;20558;-75
2022/01/26 12:15:53;;;;;;;69.68;16.48;;;;;;;1.61;88.72;101833.88;5095229;28;19943;-75
2022/01/26 12:42:58;;;;;;;62.08;14.95;;;;;;;1.78;88.04;101797.25;5097174;28;20393;-75
2022/01/26 12:45:27;;;;;;;61.25;17.13;;;;;;;1.77;88.62;101792.91;5097383;28;20116;-75
2022/01/26 12:47:56;;;;;;;56.05;15.25;;;;;;;1.77;88.53;101800.88;5097062;28;20036;-75
2022/01/26 12:50:23;;;;;;;61.28;16.30;;;;;;;1.69;88.42;101798.78;5096588;28;20039;-75
2022/01/26 12:52:51;;;;;;;72.72;15.90;;;;;;;1.68;88.46;101805.06;5096735;28;20043;-75
2022/01/26 12:55:21;;;;;;;61.22;16.05;;;;;;;1.66;88.78;101814.94;5096301;28;20074;-75
2022/01/26 12:57:47;;;;;;;56.08;14.77;;;;;;;1.65;89.50;101819.41;5096348;28;20052;-75
2022/01/26 13:00:13;;;;;;;62.35;17.73;;;;;;;1.69;88.86;101810.25;5096266;28;20051;-75
2022/01/26 13:02:38;;;;;;;60.28;15.98;;;;;;;1.66;89.14;101810.47;5096222;28;20039;-75
2022/01/26 13:05:05;;;;;;;51.55;13.73;;;;;;;1.67;89.06;101809.50;5096887;28;20073;-75
2022/01/26 13:07:30;;;;;;;57.33;15.63;;;;;;;1.60;89.03;101802.13;5096973;28;20123;-74
2022/01/26 13:09:56;;;;;;;65.90;15.18;;;;;;;1.64;89.69;101798.25;5096528;28;20467;-75
2022/01/26 13:12:30;;;;;;;69.35;18.65;;;;;;;1.58;89.14;101782.78;5096664;28;20035;-75
2022/01/26 13:15:07;;;;;;;54.40;16.38;;;;;;;1.55;89.07;101786.53;5096711;28;20032;-75
2022/01/26 13:17:39;;;;;;;56.10;15.40;;;;;;;1.58;89.30;101781.00;5095087;28;20036;-75
2022/01/26 13:28:26;;;;;;;59.25;15.70;;;;;;;1.60;89.34;101763.13;5095963;28;20062;-75
2022/01/26 13:41:27;;;;;;;67.10;16.27;;;;;;;1.51;89.92;101736.38;5095323;28;20028;-75
2022/01/26 13:44:39;;;;;;;65.63;16.27;;;;;;;1.53;90.22;101734.47;5095133;28;20059;-75
2022/01/26 13:47:16;;;;;;;50.00;11.70;;;;;;;1.56;90.07;101723.63;5094782;28;20032;-75
2022/01/26 13:55:24;;;;;;;58.58;15.75;;;;;;;1.59;90.54;101750.81;5095439;28;20040;-74
2022/01/26 14:00:08;;;;;;;62.50;13.40;;;;;;;1.61;89.40;101753.34;5095025;28;20455;-75
2022/01/26 14:02:36;;;;;;;59.25;13.48;;;;;;;1.62;89.89;101749.69;5095483;28;20512;-75
2022/01/26 14:05:02;;;;;;;48.75;15.02;;;;;;;1.60;89.75;101746.34;5093829;28;20043;-75
2022/01/26 14:07:28;;;;;;;49.67;14.00;;;;;;;1.60;89.89;101755.16;5095083;28;20024;-74
2022/01/26 14:09:53;;;;;;;54.78;13.35;;;;;;;1.58;89.61;101751.78;5094825;28;20085;-75
2022/01/26 14:12:25;;;;;;;49.88;12.95;;;;;;;1.59;89.82;101744.66;5094660;28;20150;-75
2022/01/26 14:14:54;;;;;;;47.42;13.15;;;;;;;1.60;89.91;101744.53;5095231;28;20074;-74
2022/01/26 14:17:33;;;;;;;48.95;11.93;;;;;;;1.61;90.02;101743.53;5093131;28;20123;-75